Portada
METAR-TAF:

METAR-TAF

Aeropuertos :

Aeropuerto Internacional La Tontouta

Nouméa / La Tontouta, Nueva Caledonia

latitud: 22-01S, longitud: 166-13E, altitud: 16 m

Observación

El informe se hizo hace 32 minutos, a las 10:30 UTC
Viento calma
Temperatura 22°C
Humedad 94%
Presión 1018 hPa
Visibilidad 10 km o más
sin nubes por debajo de 1500 m y sin presencia de cumulonimbus.

METAR: NWWW 021030Z AUTO 00000KT CAVOK 22/21 Q1018 NOSIG

Hora: 22:02 (11:02 UTC)

Pronóstico

El informe se hizo hace 6 horas y 2 minutos, a las 05:00 UTC
Pronóstico válido del 02 a las 06 UTC al 03 a las 06 UTC
Viento 2 kt con dirección variable
Visibilidad 10 km o más
Escasas nubes a una altura de 4500 ft
Evolucionando progresivamente
del 03 a las 00 UTC al 03 a las 02 UTC
Viento 8 kt del sur

TAF: NWWW 020500Z 0206/0306 VRB02KT 9999 FEW045 BECMG 0300/0302 18008KT

Observaciones y pronósticos meteorológicos de más de 4000 aeropuertos (mensajes METAR y TAF).

Los puntos amarillos y rojos representan las estaciones disponibles.

Ponga el ratón en el punto deseado para ver el nombre de la estación.

Haga clic para ver las observaciones y los pronósticos meteorológicos.

Para cambiar el mapa : haga clic en los botones verdes con una cruz de color negro para hacer un zoom, en el botón verde con un guión para alejar o en las flechas verdes para mapas adyacentes.


METAR-TAF: